Terminal Aerodrome Forecast
Issued by NWS

Home | Current Version | Previous Version | Text Only | Print | Product List | Glossary On
Versions: 1 2 3 4 5 6 7 8 9 10 11 12 13 14 15 16 17 18
000
FTUS43 KDMX 281127
TAFMCW
TAF
KMCW 281127Z 2812/2912 34007KT P6SM BKN008
     FM281500 34008KT P6SM BKN015
     FM282000 35009KT P6SM VCSH OVC020
     FM290000 02008KT P6SM BKN030
     FM291000 03006KT P6SM OVC020=

USA.gov is the U.S. government's official web portal to all federal, state and local government web resources and services.